sensor_id;sensor_type;location;lat;lon;timestamp;pressure;altitude;pressure_sealevel;temperature;humidity
39411;BME280;26579;43.238;23.124;2023-04-03T00:01:10;96415.50;;;10.68;54.00
39411;BME280;26579;43.238;23.124;2023-04-03T00:03:37;96419.88;;;10.58;54.46
39411;BME280;26579;43.238;23.124;2023-04-03T00:06:03;96410.47;;;10.47;54.98
39411;BME280;26579;43.238;23.124;2023-04-03T00:08:29;96414.81;;;10.47;55.03
39411;BME280;26579;43.238;23.124;2023-04-03T00:10:55;96413.88;;;10.48;55.08
39411;BME280;26579;43.238;23.124;2023-04-03T00:13:20;96413.31;;;10.44;55.41
39411;BME280;26579;43.238;23.124;2023-04-03T00:15:46;96413.31;;;10.44;55.15
39411;BME280;26579;43.238;23.124;2023-04-03T00:18:12;96398.41;;;10.36;54.65
39411;BME280;26579;43.238;23.124;2023-04-03T00:20:37;96404.97;;;10.40;54.85
39411;BME280;26579;43.238;23.124;2023-04-03T00:23:03;96400.44;;;10.42;55.38
39411;BME280;26579;43.238;23.124;2023-04-03T00:25:29;96402.09;;;10.43;55.00
39411;BME280;26579;43.238;23.124;2023-04-03T00:27:55;96385.13;;;10.39;55.20
39411;BME280;26579;43.238;23.124;2023-04-03T00:30:21;96388.13;;;10.45;54.98
39411;BME280;26579;43.238;23.124;2023-04-03T00:32:51;96387.28;;;10.44;55.30
39411;BME280;26579;43.238;23.124;2023-04-03T00:35:18;96379.50;;;10.34;55.21
39411;BME280;26579;43.238;23.124;2023-04-03T00:37:44;96392.50;;;10.34;55.36
39411;BME280;26579;43.238;23.124;2023-04-03T00:40:11;96384.00;;;10.32;55.34
39411;BME280;26579;43.238;23.124;2023-04-03T00:42:39;96385.38;;;10.36;55.73
39411;BME280;26579;43.238;23.124;2023-04-03T00:47:31;96377.00;;;10.23;55.50
39411;BME280;26579;43.238;23.124;2023-04-03T00:49:58;96396.63;;;10.27;55.60
39411;BME280;26579;43.238;23.124;2023-04-03T00:52:29;96382.78;;;10.27;55.42
39411;BME280;26579;43.238;23.124;2023-04-03T00:54:59;96401.94;;;10.35;55.01
39411;BME280;26579;43.238;23.124;2023-04-03T00:57:27;96395.78;;;10.36;55.67
39411;BME280;26579;43.238;23.124;2023-04-03T01:00:00;96389.88;;;10.25;55.76
39411;BME280;26579;43.238;23.124;2023-04-03T01:02:27;96396.06;;;10.33;55.39
39411;BME280;26579;43.238;23.124;2023-04-03T01:04:53;96394.94;;;10.26;55.48
39411;BME280;26579;43.238;23.124;2023-04-03T01:07:30;96391.38;;;10.17;55.82
39411;BME280;26579;43.238;23.124;2023-04-03T01:09:58;96399.75;;;10.21;55.69
39411;BME280;26579;43.238;23.124;2023-04-03T01:12:28;96397.16;;;10.21;55.65
39411;BME280;26579;43.238;23.124;2023-04-03T01:14:59;96395.47;;;10.20;55.86
39411;BME280;26579;43.238;23.124;2023-04-03T01:25:29;96372.63;;;10.14;55.23
39411;BME280;26579;43.238;23.124;2023-04-03T01:27:56;96375.22;;;10.14;55.51
39411;BME280;26579;43.238;23.124;2023-04-03T01:30:27;96386.97;;;10.18;55.49
39411;BME280;26579;43.238;23.124;2023-04-03T01:32:56;96383.69;;;10.06;55.59
39411;BME280;26579;43.238;23.124;2023-04-03T01:35:22;96399.19;;;10.08;56.28
39411;BME280;26579;43.238;23.124;2023-04-03T01:37:48;96389.72;;;9.97;55.92
39411;BME280;26579;43.238;23.124;2023-04-03T01:40:14;96399.19;;;9.98;56.46
39411;BME280;26579;43.238;23.124;2023-04-03T01:42:40;96393.00;;;9.99;55.98
39411;BME280;26579;43.238;23.124;2023-04-03T01:45:06;96384.13;;;9.92;56.12
39411;BME280;26579;43.238;23.124;2023-04-03T01:47:32;96408.59;;;9.99;56.35
39411;BME280;26579;43.238;23.124;2023-04-03T01:49:58;96400.09;;;9.97;56.54
39411;BME280;26579;43.238;23.124;2023-04-03T01:52:24;96400.00;;;9.98;56.38
39411;BME280;26579;43.238;23.124;2023-04-03T01:54:50;96400.00;;;9.98;56.39
39411;BME280;26579;43.238;23.124;2023-04-03T01:57:16;96398.09;;;10.01;56.21
39411;BME280;26579;43.238;23.124;2023-04-03T01:59:43;96394.09;;;9.96;56.15
39411;BME280;26579;43.238;23.124;2023-04-03T02:02:09;96393.66;;;9.91;56.45
39411;BME280;26579;43.238;23.124;2023-04-03T02:04:35;96378.19;;;9.80;56.63
39411;BME280;26579;43.238;23.124;2023-04-03T02:07:01;96388.34;;;9.83;56.62
39411;BME280;26579;43.238;23.124;2023-04-03T02:09:26;96386.69;;;9.82;57.16
39411;BME280;26579;43.238;23.124;2023-04-03T02:11:53;96378.72;;;9.74;56.98
39411;BME280;26579;43.238;23.124;2023-04-03T02:14:18;96372.16;;;9.70;57.24
39411;BME280;26579;43.238;23.124;2023-04-03T02:16:44;96388.84;;;9.67;57.17
39411;BME280;26579;43.238;23.124;2023-04-03T02:19:10;96377.34;;;9.60;57.54
39411;BME280;26579;43.238;23.124;2023-04-03T02:21:36;96383.09;;;9.64;57.50
39411;BME280;26579;43.238;23.124;2023-04-03T02:24:01;96374.03;;;9.48;57.94
39411;BME280;26579;43.238;23.124;2023-04-03T02:26:27;96376.09;;;9.55;58.17
39411;BME280;26579;43.238;23.124;2023-04-03T02:28:52;96381.25;;;9.45;57.90
39411;BME280;26579;43.238;23.124;2023-04-03T02:31:18;96371.25;;;9.40;58.06
39411;BME280;26579;43.238;23.124;2023-04-03T02:33:46;96380.47;;;9.54;58.21
39411;BME280;26579;43.238;23.124;2023-04-03T02:36:14;96360.72;;;9.42;57.87
39411;BME280;26579;43.238;23.124;2023-04-03T02:38:42;96375.66;;;9.49;58.08
39411;BME280;26579;43.238;23.124;2023-04-03T02:41:11;96372.91;;;9.51;57.75
39411;BME280;26579;43.238;23.124;2023-04-03T02:43:38;96365.28;;;9.59;57.48
39411;BME280;26579;43.238;23.124;2023-04-03T02:46:05;96347.34;;;9.46;57.67
39411;BME280;26579;43.238;23.124;2023-04-03T02:48:31;96363.38;;;9.61;57.52
39411;BME280;26579;43.238;23.124;2023-04-03T02:50:57;96364.75;;;9.65;57.58
39411;BME280;26579;43.238;23.124;2023-04-03T02:53:23;96351.63;;;9.57;57.29
39411;BME280;26579;43.238;23.124;2023-04-03T02:55:49;96357.81;;;9.66;57.36
39411;BME280;26579;43.238;23.124;2023-04-03T02:58:15;96370.25;;;9.72;56.96
39411;BME280;26579;43.238;23.124;2023-04-03T03:00:41;96354.78;;;9.61;57.25
39411;BME280;26579;43.238;23.124;2023-04-03T03:03:07;96366.25;;;9.68;57.02
39411;BME280;26579;43.238;23.124;2023-04-03T03:05:33;96351.34;;;9.60;57.61
39411;BME280;26579;43.238;23.124;2023-04-03T03:07:58;96348.19;;;9.57;57.51
39411;BME280;26579;43.238;23.124;2023-04-03T03:10:24;96347.91;;;9.60;57.14
39411;BME280;26579;43.238;23.124;2023-04-03T03:12:50;96357.38;;;9.61;56.99
39411;BME280;26579;43.238;23.124;2023-04-03T03:15:16;96364.91;;;9.64;56.84
39411;BME280;26579;43.238;23.124;2023-04-03T03:17:42;96342.59;;;9.51;57.07
39411;BME280;26579;43.238;23.124;2023-04-03T03:20:09;96359.28;;;9.59;57.16
39411;BME280;26579;43.238;23.124;2023-04-03T03:22:35;96354.06;;;9.59;57.17
39411;BME280;26579;43.238;23.124;2023-04-03T03:25:02;96338.91;;;9.54;57.41
39411;BME280;26579;43.238;23.124;2023-04-03T03:27:28;96350.78;;;9.57;57.48
39411;BME280;26579;43.238;23.124;2023-04-03T03:29:54;96339.56;;;9.56;57.09
39411;BME280;26579;43.238;23.124;2023-04-03T03:32:20;96346.44;;;9.57;57.52
39411;BME280;26579;43.238;23.124;2023-04-03T03:34:45;96347.91;;;9.60;57.49
39411;BME280;26579;43.238;23.124;2023-04-03T03:37:11;96342.31;;;9.55;57.83
39411;BME280;26579;43.238;23.124;2023-04-03T03:39:37;96328.34;;;9.46;57.66
39411;BME280;26579;43.238;23.124;2023-04-03T03:42:03;96334.91;;;9.50;57.99
39411;BME280;26579;43.238;23.124;2023-04-03T03:44:29;96335.72;;;9.50;57.84
39411;BME280;26579;43.238;23.124;2023-04-03T03:46:55;96330.22;;;9.34;58.04
39411;BME280;26579;43.238;23.124;2023-04-03T03:49:21;96335.81;;;9.39;58.39
39411;BME280;26579;43.238;23.124;2023-04-03T03:51:47;96340.09;;;9.40;58.23
39411;BME280;26579;43.238;23.124;2023-04-03T03:54:13;96339.13;;;9.41;58.37
39411;BME280;26579;43.238;23.124;2023-04-03T03:56:39;96342.53;;;9.42;57.82
39411;BME280;26579;43.238;23.124;2023-04-03T03:59:05;96329.38;;;9.34;58.05
39411;BME280;26579;43.238;23.124;2023-04-03T04:01:32;96331.97;;;9.34;58.34
39411;BME280;26579;43.238;23.124;2023-04-03T04:03:58;96342.97;;;9.37;58.41
39411;BME280;26579;43.238;23.124;2023-04-03T04:06:28;96341.56;;;9.33;58.40
39411;BME280;26579;43.238;23.124;2023-04-03T04:08:57;96341.72;;;9.32;58.90
39411;BME280;26579;43.238;23.124;2023-04-03T04:11:23;96347.97;;;9.29;58.75
39411;BME280;26579;43.238;23.124;2023-04-03T04:13:51;96347.97;;;9.29;58.28
39411;BME280;26579;43.238;23.124;2023-04-03T04:16:18;96339.31;;;9.19;58.35
39411;BME280;26579;43.238;23.124;2023-04-03T04:18:44;96339.75;;;9.24;58.51
39411;BME280;26579;43.238;23.124;2023-04-03T04:21:10;96339.06;;;9.22;58.60
39411;BME280;26579;43.238;23.124;2023-04-03T04:23:37;96350.59;;;9.29;58.36
39411;BME280;26579;43.238;23.124;2023-04-03T04:26:03;96365.75;;;9.34;58.53
39411;BME280;26579;43.238;23.124;2023-04-03T04:28:33;96378.78;;;9.43;58.44
39411;BME280;26579;43.238;23.124;2023-04-03T04:31:00;96364.66;;;9.36;58.16
39411;BME280;26579;43.238;23.124;2023-04-03T04:33:27;96378.25;;;9.49;57.75
39411;BME280;26579;43.238;23.124;2023-04-03T04:35:53;96374.88;;;9.59;57.17
39411;BME280;26579;43.238;23.124;2023-04-03T04:38:20;96377.91;;;9.64;57.68
39411;BME280;26579;43.238;23.124;2023-04-03T04:40:48;96382.81;;;9.67;57.74
39411;BME280;26579;43.238;23.124;2023-04-03T04:43:14;96376.38;;;9.61;57.88
39411;BME280;26579;43.238;23.124;2023-04-03T04:45:41;96381.19;;;9.66;57.63
39411;BME280;26579;43.238;23.124;2023-04-03T04:48:08;96383.63;;;9.67;57.70
39411;BME280;26579;43.238;23.124;2023-04-03T04:50:34;96383.38;;;9.70;57.70
39411;BME280;26579;43.238;23.124;2023-04-03T04:53:00;96389.69;;;9.78;57.16
39411;BME280;26579;43.238;23.124;2023-04-03T04:55:26;96389.44;;;9.90;57.05
39411;BME280;26579;43.238;23.124;2023-04-03T04:57:51;96388.88;;;9.96;56.91
39411;BME280;26579;43.238;23.124;2023-04-03T05:00:18;96403.69;;;10.06;56.96
39411;BME280;26579;43.238;23.124;2023-04-03T05:02:44;96402.88;;;10.15;56.60
39411;BME280;26579;43.238;23.124;2023-04-03T05:05:10;96402.22;;;10.32;56.27
39411;BME280;26579;43.238;23.124;2023-04-03T05:07:37;96400.28;;;10.44;56.30
39411;BME280;26579;43.238;23.124;2023-04-03T05:10:03;96404.97;;;10.60;55.28
39411;BME280;26579;43.238;23.124;2023-04-03T05:12:30;96393.72;;;10.69;54.57
39411;BME280;26579;43.238;23.124;2023-04-03T05:14:59;96409.69;;;10.94;53.84
39411;BME280;26579;43.238;23.124;2023-04-03T05:17:27;96410.91;;;11.09;53.67
39411;BME280;26579;43.238;23.124;2023-04-03T05:19:55;96422.22;;;11.27;53.36
39411;BME280;26579;43.238;23.124;2023-04-03T05:22:22;96402.34;;;11.26;52.97
39411;BME280;26579;43.238;23.124;2023-04-03T05:24:49;96422.91;;;11.29;53.19
39411;BME280;26579;43.238;23.124;2023-04-03T05:27:16;96425.69;;;11.18;53.90
39411;BME280;26579;43.238;23.124;2023-04-03T05:29:46;96424.41;;;11.22;53.71
39411;BME280;26579;43.238;23.124;2023-04-03T05:32:17;96429.75;;;11.30;53.74
39411;BME280;26579;43.238;23.124;2023-04-03T05:34:44;96421.06;;;11.40;53.44
39411;BME280;26579;43.238;23.124;2023-04-03T05:37:11;96415.28;;;11.46;53.29
39411;BME280;26579;43.238;23.124;2023-04-03T05:39:37;96425.16;;;11.52;52.72
39411;BME280;26579;43.238;23.124;2023-04-03T05:42:04;96427.41;;;11.65;52.67
39411;BME280;26579;43.238;23.124;2023-04-03T05:44:31;96433.13;;;11.78;52.49
39411;BME280;26579;43.238;23.124;2023-04-03T05:46:56;96429.09;;;11.84;52.84
39411;BME280;26579;43.238;23.124;2023-04-03T05:49:22;96428.41;;;11.91;51.99
39411;BME280;26579;43.238;23.124;2023-04-03T05:51:48;96423.22;;;12.09;51.65
39411;BME280;26579;43.238;23.124;2023-04-03T05:54:27;96438.16;;;12.35;50.56
39411;BME280;26579;43.238;23.124;2023-04-03T05:57:09;96430.53;;;12.41;49.96
39411;BME280;26579;43.238;23.124;2023-04-03T05:59:35;96425.25;;;12.69;49.96
39411;BME280;26579;43.238;23.124;2023-04-03T06:02:01;96422.44;;;12.88;49.36
39411;BME280;26579;43.238;23.124;2023-04-03T06:04:27;96423.59;;;13.12;49.02
39411;BME280;26579;43.238;23.124;2023-04-03T06:06:55;96425.09;;;13.23;48.69
39411;BME280;26579;43.238;23.124;2023-04-03T06:09:25;96439.31;;;13.46;48.60
39411;BME280;26579;43.238;23.124;2023-04-03T06:11:51;96442.69;;;13.65;48.01
39411;BME280;26579;43.238;23.124;2023-04-03T06:14:18;96435.06;;;13.79;49.22
39411;BME280;26579;43.238;23.124;2023-04-03T06:16:44;96434.28;;;13.95;48.36
39411;BME280;26579;43.238;23.124;2023-04-03T06:19:11;96436.16;;;14.19;48.27
39411;BME280;26579;43.238;23.124;2023-04-03T06:21:40;96410.81;;;14.20;48.82
39411;BME280;26579;43.238;23.124;2023-04-03T06:24:06;96428.69;;;14.49;49.26
39411;BME280;26579;43.238;23.124;2023-04-03T06:26:33;96429.56;;;14.58;47.12
39411;BME280;26579;43.238;23.124;2023-04-03T06:28:59;96404.66;;;14.54;46.68
39411;BME280;26579;43.238;23.124;2023-04-03T06:31:25;96416.78;;;14.71;46.23
39411;BME280;26579;43.238;23.124;2023-04-03T06:33:51;96412.19;;;14.81;45.82
39411;BME280;26579;43.238;23.124;2023-04-03T06:36:19;96408.25;;;14.85;45.39
39411;BME280;26579;43.238;23.124;2023-04-03T06:38:47;96421.69;;;15.07;45.25
39411;BME280;26579;43.238;23.124;2023-04-03T06:41:14;96418.81;;;15.33;44.63
39411;BME280;26579;43.238;23.124;2023-04-03T06:43:40;96404.97;;;15.63;45.38
39411;BME280;26579;43.238;23.124;2023-04-03T06:46:06;96410.03;;;15.73;44.24
39411;BME280;26579;43.238;23.124;2023-04-03T06:48:32;96412.31;;;15.76;43.72
39411;BME280;26579;43.238;23.124;2023-04-03T06:51:00;96419.00;;;15.87;43.38
39411;BME280;26579;43.238;23.124;2023-04-03T06:53:25;96416.28;;;16.12;43.89
39411;BME280;26579;43.238;23.124;2023-04-03T06:55:54;96425.53;;;16.22;42.35
39411;BME280;26579;43.238;23.124;2023-04-03T06:58:20;96421.69;;;16.10;41.49
39411;BME280;26579;43.238;23.124;2023-04-03T07:00:46;96416.84;;;15.91;42.34
39411;BME280;26579;43.238;23.124;2023-04-03T07:03:11;96419.66;;;15.89;42.01
39411;BME280;26579;43.238;23.124;2023-04-03T07:05:37;96413.66;;;15.72;41.88
39411;BME280;26579;43.238;23.124;2023-04-03T07:08:03;96422.16;;;15.82;42.56
39411;BME280;26579;43.238;23.124;2023-04-03T07:10:28;96420.03;;;15.78;42.13
39411;BME280;26579;43.238;23.124;2023-04-03T07:12:54;96424.16;;;15.72;41.82
39411;BME280;26579;43.238;23.124;2023-04-03T07:15:20;96423.53;;;15.62;42.54
39411;BME280;26579;43.238;23.124;2023-04-03T07:17:46;96417.63;;;15.68;42.50
39411;BME280;26579;43.238;23.124;2023-04-03T07:20:11;96423.34;;;15.72;41.34
39411;BME280;26579;43.238;23.124;2023-04-03T07:22:37;96371.22;;;15.52;41.81
39411;BME280;26579;43.238;23.124;2023-04-03T07:25:03;96408.59;;;16.02;41.91
39411;BME280;26579;43.238;23.124;2023-04-03T07:27:29;96405.56;;;16.13;42.30
39411;BME280;26579;43.238;23.124;2023-04-03T07:29:55;96408.81;;;16.23;41.95
39411;BME280;26579;43.238;23.124;2023-04-03T07:32:20;96418.63;;;16.29;41.66
39411;BME280;26579;43.238;23.124;2023-04-03T07:34:46;96422.97;;;16.37;40.54
39411;BME280;26579;43.238;23.124;2023-04-03T07:37:12;96401.19;;;16.05;41.12
39411;BME280;26579;43.238;23.124;2023-04-03T07:39:38;96411.91;;;16.27;41.47
39411;BME280;26579;43.238;23.124;2023-04-03T07:42:03;96414.47;;;16.35;41.41
39411;BME280;26579;43.238;23.124;2023-04-03T07:44:29;96409.56;;;16.09;41.42
39411;BME280;26579;43.238;23.124;2023-04-03T07:46:55;96417.00;;;15.97;41.35
39411;BME280;26579;43.238;23.124;2023-04-03T07:49:20;96417.22;;;15.79;41.61
39411;BME280;26579;43.238;23.124;2023-04-03T07:51:46;96413.50;;;15.66;42.79
39411;BME280;26579;43.238;23.124;2023-04-03T07:54:12;96406.34;;;15.51;42.79
39411;BME280;26579;43.238;23.124;2023-04-03T07:56:37;96409.41;;;15.63;42.92
39411;BME280;26579;43.238;23.124;2023-04-03T07:59:03;96413.66;;;15.64;43.09
39411;BME280;26579;43.238;23.124;2023-04-03T08:01:29;96396.97;;;15.57;43.24
39411;BME280;26579;43.238;23.124;2023-04-03T08:03:54;96417.09;;;15.65;43.14
39411;BME280;26579;43.238;23.124;2023-04-03T08:06:20;96409.88;;;15.75;43.05
39411;BME280;26579;43.238;23.124;2023-04-03T08:08:46;96411.13;;;15.39;43.15
39411;BME280;26579;43.238;23.124;2023-04-03T08:11:12;96401.66;;;15.30;43.94
39411;BME280;26579;43.238;23.124;2023-04-03T08:13:38;96401.47;;;15.24;44.40
39411;BME280;26579;43.238;23.124;2023-04-03T08:16:17;96407.50;;;15.32;44.97
39411;BME280;26579;43.238;23.124;2023-04-03T08:18:43;96397.69;;;15.34;44.32
39411;BME280;26579;43.238;23.124;2023-04-03T08:21:10;96404.22;;;15.38;45.24
39411;BME280;26579;43.238;23.124;2023-04-03T08:23:38;96395.03;;;15.51;44.31
39411;BME280;26579;43.238;23.124;2023-04-03T08:26:10;96380.09;;;15.51;43.51
39411;BME280;26579;43.238;23.124;2023-04-03T08:28:37;96386.03;;;15.45;43.90
39411;BME280;26579;43.238;23.124;2023-04-03T08:31:08;96362.19;;;15.55;44.50
39411;BME280;26579;43.238;23.124;2023-04-03T08:33:34;96378.84;;;15.78;44.43
39411;BME280;26579;43.238;23.124;2023-04-03T08:35:59;96360.34;;;15.72;42.83
39411;BME280;26579;43.238;23.124;2023-04-03T08:38:25;96354.66;;;15.52;43.11
39411;BME280;26579;43.238;23.124;2023-04-03T08:51:58;96362.34;;;16.24;42.75
39411;BME280;26579;43.238;23.124;2023-04-03T08:54:34;96371.91;;;16.40;43.19
39411;BME280;26579;43.238;23.124;2023-04-03T08:57:04;96354.69;;;16.37;42.52
39411;BME280;26579;43.238;23.124;2023-04-03T08:59:34;96359.53;;;16.48;42.17
39411;BME280;26579;43.238;23.124;2023-04-03T09:02:03;96368.75;;;16.67;45.18
39411;BME280;26579;43.238;23.124;2023-04-03T09:04:31;96371.91;;;16.86;43.74
39411;BME280;26579;43.238;23.124;2023-04-03T09:07:03;96380.22;;;16.89;41.57
39411;BME280;26579;43.238;23.124;2023-04-03T09:09:37;96361.03;;;16.89;42.87
39411;BME280;26579;43.238;23.124;2023-04-03T09:12:24;96372.28;;;16.97;42.54
39411;BME280;26579;43.238;23.124;2023-04-03T09:18:05;96364.81;;;16.63;42.08
39411;BME280;26579;43.238;23.124;2023-04-03T09:23:50;96361.94;;;16.58;42.30
39411;BME280;26579;43.238;23.124;2023-04-03T09:28:49;96356.09;;;16.48;43.63
39411;BME280;26579;43.238;23.124;2023-04-03T09:31:26;96341.34;;;16.47;44.22
39411;BME280;26579;43.238;23.124;2023-04-03T09:33:59;96360.19;;;16.50;43.27
39411;BME280;26579;43.238;23.124;2023-04-03T09:36:42;96361.94;;;16.58;43.28
39411;BME280;26579;43.238;23.124;2023-04-03T09:39:21;96362.13;;;16.71;42.40
39411;BME280;26579;43.238;23.124;2023-04-03T09:42:26;96355.13;;;16.87;42.31
39411;BME280;26579;43.238;23.124;2023-04-03T09:45:00;96350.88;;;16.86;42.62
39411;BME280;26579;43.238;23.124;2023-04-03T09:47:34;96350.78;;;16.79;42.37
39411;BME280;26579;43.238;23.124;2023-04-03T09:52:38;96361.47;;;16.69;44.23
39411;BME280;26579;43.238;23.124;2023-04-03T09:55:13;96348.50;;;16.53;42.28
39411;BME280;26579;43.238;23.124;2023-04-03T09:57:40;96353.88;;;16.37;44.42
39411;BME280;26579;43.238;23.124;2023-04-03T10:00:10;96352.81;;;16.23;45.29
39411;BME280;26579;43.238;23.124;2023-04-03T10:02:44;96353.34;;;16.18;46.20
39411;BME280;26579;43.238;23.124;2023-04-03T10:05:44;96352.00;;;16.22;46.19
39411;BME280;26579;43.238;23.124;2023-04-03T10:10:38;96345.97;;;15.91;44.70
39411;BME280;26579;43.238;23.124;2023-04-03T10:13:13;96343.56;;;15.81;44.69
39411;BME280;26579;43.238;23.124;2023-04-03T10:15:43;96342.81;;;15.72;45.78
39411;BME280;26579;43.238;23.124;2023-04-03T10:18:25;96342.09;;;15.78;44.88
39411;BME280;26579;43.238;23.124;2023-04-03T10:20:57;96324.78;;;15.61;45.12
39411;BME280;26579;43.238;23.124;2023-04-03T10:23:31;96328.06;;;15.71;45.92
39411;BME280;26579;43.238;23.124;2023-04-03T10:29:02;96325.78;;;15.68;45.68
39411;BME280;26579;43.238;23.124;2023-04-03T10:31:46;96328.69;;;15.73;47.27
39411;BME280;26579;43.238;23.124;2023-04-03T10:34:33;96320.84;;;15.65;46.63
39411;BME280;26579;43.238;23.124;2023-04-03T10:37:19;96312.56;;;15.45;45.65
39411;BME280;26579;43.238;23.124;2023-04-03T10:53:34;96306.84;;;15.02;46.05
39411;BME280;26579;43.238;23.124;2023-04-03T10:58:51;96289.63;;;15.00;45.66
39411;BME280;26579;43.238;23.124;2023-04-03T11:01:21;96299.97;;;15.01;45.80
39411;BME280;26579;43.238;23.124;2023-04-03T11:03:53;96296.47;;;15.09;46.08
39411;BME280;26579;43.238;23.124;2023-04-03T11:06:21;96291.09;;;15.10;46.10
39411;BME280;26579;43.238;23.124;2023-04-03T11:08:55;96299.72;;;15.27;46.32
39411;BME280;26579;43.238;23.124;2023-04-03T11:11:29;96289.31;;;15.42;44.89
39411;BME280;26579;43.238;23.124;2023-04-03T11:14:04;96285.47;;;15.53;45.02
39411;BME280;26579;43.238;23.124;2023-04-03T11:16:36;96288.72;;;15.63;50.48
39411;BME280;26579;43.238;23.124;2023-04-03T11:19:17;96284.47;;;15.62;45.08
39411;BME280;26579;43.238;23.124;2023-04-03T11:21:50;96284.91;;;15.74;45.54
39411;BME280;26579;43.238;23.124;2023-04-03T11:24:25;96272.59;;;15.74;44.46
39411;BME280;26579;43.238;23.124;2023-04-03T11:26:52;96286.22;;;15.70;44.56
39411;BME280;26579;43.238;23.124;2023-04-03T11:29:24;96277.91;;;15.58;45.00
39411;BME280;26579;43.238;23.124;2023-04-03T11:32:09;96286.63;;;15.50;45.32
39411;BME280;26579;43.238;23.124;2023-04-03T11:34:47;96279.59;;;15.51;48.72
39411;BME280;26579;43.238;23.124;2023-04-03T11:37:25;96271.50;;;15.69;45.95
39411;BME280;26579;43.238;23.124;2023-04-03T11:39:57;96258.63;;;15.51;46.07
39411;BME280;26579;43.238;23.124;2023-04-03T11:42:46;96252.72;;;15.49;47.48
39411;BME280;26579;43.238;23.124;2023-04-03T11:47:55;96240.66;;;15.62;49.75
39411;BME280;26579;43.238;23.124;2023-04-03T12:05:49;96232.88;;;15.77;44.51
39411;BME280;26579;43.238;23.124;2023-04-03T12:22:10;96212.09;;;15.13;45.97
39411;BME280;26579;43.238;23.124;2023-04-03T12:26:43;96209.94;;;15.17;45.13
39411;BME280;26579;43.238;23.124;2023-04-03T12:31:50;96224.78;;;14.93;45.74
39411;BME280;26579;43.238;23.124;2023-04-03T12:34:45;96220.50;;;15.01;45.61
39411;BME280;26579;43.238;23.124;2023-04-03T12:37:21;96216.59;;;14.97;46.17
39411;BME280;26579;43.238;23.124;2023-04-03T12:45:20;96198.25;;;14.97;47.34
39411;BME280;26579;43.238;23.124;2023-04-03T12:47:53;96210.59;;;15.19;47.03
39411;BME280;26579;43.238;23.124;2023-04-03T12:50:30;96206.59;;;15.31;46.23
39411;BME280;26579;43.238;23.124;2023-04-03T12:55:27;96208.66;;;15.13;47.37
39411;BME280;26579;43.238;23.124;2023-04-03T12:57:53;96199.94;;;15.12;47.95
39411;BME280;26579;43.238;23.124;2023-04-03T13:00:33;96210.00;;;15.32;47.47
39411;BME280;26579;43.238;23.124;2023-04-03T13:03:02;96198.59;;;15.25;45.80
39411;BME280;26579;43.238;23.124;2023-04-03T13:05:29;96178.47;;;15.17;47.19
39411;BME280;26579;43.238;23.124;2023-04-03T13:08:02;96193.69;;;15.22;45.70
39411;BME280;26579;43.238;23.124;2023-04-03T13:10:29;96187.88;;;15.03;46.50
39411;BME280;26579;43.238;23.124;2023-04-03T13:13:07;96176.69;;;15.09;47.11
39411;BME280;26579;43.238;23.124;2023-04-03T13:15:45;96176.81;;;14.93;46.82
39411;BME280;26579;43.238;23.124;2023-04-03T13:18:40;96175.00;;;14.93;45.32
39411;BME280;26579;43.238;23.124;2023-04-03T13:21:18;96154.88;;;14.86;45.10
39411;BME280;26579;43.238;23.124;2023-04-03T13:23:48;96172.06;;;14.88;46.55
39411;BME280;26579;43.238;23.124;2023-04-03T13:26:18;96158.03;;;14.81;46.61
39411;BME280;26579;43.238;23.124;2023-04-03T13:28:46;96135.81;;;14.69;47.98
39411;BME280;26579;43.238;23.124;2023-04-03T13:33:38;96140.53;;;14.74;49.10
39411;BME280;26579;43.238;23.124;2023-04-03T13:36:27;96134.19;;;14.60;50.37
39411;BME280;26579;43.238;23.124;2023-04-03T13:39:20;96129.81;;;14.44;50.69
39411;BME280;26579;43.238;23.124;2023-04-03T13:41:53;96129.69;;;14.29;51.48
39411;BME280;26579;43.238;23.124;2023-04-03T13:46:56;96115.03;;;14.12;51.16
39411;BME280;26579;43.238;23.124;2023-04-03T13:51:56;96130.50;;;14.38;51.33
39411;BME280;26579;43.238;23.124;2023-04-03T13:54:29;96129.69;;;14.29;51.25
39411;BME280;26579;43.238;23.124;2023-04-03T13:56:58;96126.94;;;14.22;51.34
39411;BME280;26579;43.238;23.124;2023-04-03T13:59:31;96125.47;;;14.20;51.18
39411;BME280;26579;43.238;23.124;2023-04-03T14:07:12;96128.38;;;14.25;50.10
39411;BME280;26579;43.238;23.124;2023-04-03T14:09:38;96116.69;;;13.96;42.41
39411;BME280;26579;43.238;23.124;2023-04-03T14:12:34;96121.09;;;13.96;43.93
39411;BME280;26579;43.238;23.124;2023-04-03T14:15:02;96131.22;;;14.07;43.29
39411;BME280;26579;43.238;23.124;2023-04-03T14:17:29;96133.50;;;14.10;44.20
39411;BME280;26579;43.238;23.124;2023-04-03T14:19:55;96131.88;;;14.17;44.47
39411;BME280;26579;43.238;23.124;2023-04-03T14:24:49;96131.97;;;14.40;45.72
39411;BME280;26579;43.238;23.124;2023-04-03T14:27:34;96139.63;;;14.42;47.91
39411;BME280;26579;43.238;23.124;2023-04-03T14:30:00;96134.72;;;14.47;52.31
39411;BME280;26579;43.238;23.124;2023-04-03T14:32:26;96137.69;;;14.52;53.86
39411;BME280;26579;43.238;23.124;2023-04-03T14:34:52;96141.09;;;14.44;55.24
39411;BME280;26579;43.238;23.124;2023-04-03T14:37:23;96141.13;;;14.28;57.22
39411;BME280;26579;43.238;23.124;2023-04-03T14:39:51;96151.94;;;14.33;54.38
39411;BME280;26579;43.238;23.124;2023-04-03T14:42:23;96144.75;;;14.27;54.85
39411;BME280;26579;43.238;23.124;2023-04-03T14:44:50;96149.00;;;14.28;59.80
39411;BME280;26579;43.238;23.124;2023-04-03T14:47:19;96154.94;;;14.14;61.20
39411;BME280;26579;43.238;23.124;2023-04-03T14:49:46;96155.09;;;14.04;58.47
39411;BME280;26579;43.238;23.124;2023-04-03T14:52:20;96163.28;;;14.09;59.37
39411;BME280;26579;43.238;23.124;2023-04-03T14:54:47;96154.94;;;14.06;60.01
39411;BME280;26579;43.238;23.124;2023-04-03T14:57:14;96165.44;;;13.89;64.16